Time;durP1;ratioP1;P1;durP2;ratioP2;P2;SDS_P1;SDS_P2;PMS_P1;PMS_P2;Temp;Humidity;BMP_temperature;BMP_pressure;BME280_temperature;BME280_humidity;BME280_pressure;Samples;Min_cycle;Max_cycle;Signal;HPM_P1;HPM_P2
2022/06/26 00:01:04;;;;;;;13.50;9.60;;;;;;;;;;5094476;28;20066;-72
2022/06/26 00:03:30;;;;;;;10.77;9.65;;;;;;;;;;5111712;28;20489;-72
2022/06/26 00:05:56;;;;;;;10.10;9.10;;;;;;;;;;5113119;28;20043;-72
2022/06/26 00:08:23;;;;;;;11.88;9.57;;;;;;;;;;5112716;28;20493;-72
2022/06/26 00:10:49;;;;;;;12.35;10.10;;;;;;;;;;5114826;28;20055;-72
2022/06/26 00:13:17;;;;;;;11.25;9.30;;;;;;;;;;5114237;28;20043;-72
2022/06/26 00:15:43;;;;;;;10.77;9.73;;;;;;;;;;5110425;28;20043;-72
2022/06/26 00:18:09;;;;;;;11.85;10.30;;;;;;;;;;5114240;28;20447;-72
2022/06/26 00:20:35;;;;;;;14.77;10.82;;;;;;;;;;5114438;28;20075;-72
2022/06/26 00:23:01;;;;;;;11.50;10.30;;;;;;;;;;5111730;28;20078;-72
2022/06/26 00:25:27;;;;;;;13.45;10.38;;;;;;;;;;5111174;27;20051;-72
2022/06/26 00:27:53;;;;;;;12.05;10.75;;;;;;;;;;5109615;28;20032;-72
2022/06/26 00:30:19;;;;;;;12.75;11.05;;;;;;;;;;5113244;28;20039;-73
2022/06/26 00:32:45;;;;;;;12.73;11.40;;;;;;;;;;5103564;28;20046;-72
2022/06/26 00:35:11;;;;;;;13.45;11.00;;;;;;;;;;5105107;28;20082;-72
2022/06/26 00:37:37;;;;;;;12.93;11.23;;;;;;;;;;5098260;28;20044;-72
2022/06/26 00:40:04;;;;;;;12.43;10.95;;;;;;;;;;5097957;28;20031;-73
2022/06/26 00:42:30;;;;;;;15.05;11.00;;;;;;;;;;5103484;28;20043;-73
2022/06/26 00:44:56;;;;;;;13.98;11.38;;;;;;;;;;5108399;28;20112;-73
2022/06/26 00:47:22;;;;;;;13.77;12.38;;;;;;;;;;5103020;28;20046;-73
2022/06/26 00:49:49;;;;;;;14.30;11.75;;;;;;;;;;5106800;28;20039;-73
2022/06/26 00:52:16;;;;;;;12.82;11.35;;;;;;;;;;5108351;28;20378;-72
2022/06/26 00:54:42;;;;;;;13.88;11.52;;;;;;;;;;5111753;28;20051;-73
2022/06/26 00:57:08;;;;;;;13.48;12.05;;;;;;;;;;5086164;28;20046;-73
2022/06/26 00:59:34;;;;;;;13.85;12.02;;;;;;;;;;5101555;28;20405;-73
2022/06/26 01:02:00;;;;;;;13.50;11.63;;;;;;;;;;5103162;28;20397;-73
2022/06/26 01:04:26;;;;;;;13.40;12.02;;;;;;;;;;5102058;28;20078;-73
2022/06/26 01:06:52;;;;;;;13.60;11.60;;;;;;;;;;5101369;28;20092;-73
2022/06/26 01:09:19;;;;;;;15.25;11.90;;;;;;;;;;5102791;28;20070;-73
2022/06/26 01:11:45;;;;;;;15.15;12.80;;;;;;;;;;5101854;28;20050;-73
2022/06/26 01:14:11;;;;;;;14.55;13.13;;;;;;;;;;5103451;28;20571;-73
2022/06/26 01:16:38;;;;;;;13.70;12.40;;;;;;;;;;5107005;28;20044;-73
2022/06/26 01:19:05;;;;;;;14.13;12.73;;;;;;;;;;5102191;28;20036;-72
2022/06/26 01:21:32;;;;;;;13.98;12.50;;;;;;;;;;5101745;28;20036;-72
2022/06/26 01:23:59;;;;;;;14.77;13.15;;;;;;;;;;5081136;28;20047;-73
2022/06/26 01:26:25;;;;;;;13.65;12.25;;;;;;;;;;5110672;28;20549;-73
2022/06/26 01:28:52;;;;;;;14.18;12.77;;;;;;;;;;5103601;28;20478;-72
2022/06/26 01:31:19;;;;;;;15.98;13.90;;;;;;;;;;5111076;28;20509;-72
2022/06/26 01:33:45;;;;;;;15.55;13.95;;;;;;;;;;5107925;28;20043;-73
2022/06/26 01:36:11;;;;;;;14.95;13.55;;;;;;;;;;5111103;28;20040;-72
2022/06/26 01:38:37;;;;;;;17.25;13.98;;;;;;;;;;5076104;28;20050;-72
2022/06/26 01:41:03;;;;;;;16.58;14.75;;;;;;;;;;5112005;28;20447;-73
2022/06/26 01:43:31;;;;;;;17.55;14.25;;;;;;;;;;5111816;28;20394;-73
2022/06/26 01:45:57;;;;;;;16.85;15.15;;;;;;;;;;5111164;28;20049;-73
2022/06/26 01:48:27;;;;;;;16.65;14.80;;;;;;;;;;5111957;28;20078;-73
2022/06/26 01:50:54;;;;;;;16.50;14.93;;;;;;;;;;5109340;28;20577;-73
2022/06/26 01:53:20;;;;;;;14.25;12.85;;;;;;;;;;5112099;28;20169;-73
2022/06/26 01:55:46;;;;;;;14.38;12.68;;;;;;;;;;5110957;28;20478;-73
2022/06/26 01:58:13;;;;;;;14.65;13.07;;;;;;;;;;5110544;28;20439;-73
2022/06/26 02:00:40;;;;;;;14.00;12.20;;;;;;;;;;5107023;28;20477;-73
2022/06/26 02:03:07;;;;;;;16.67;12.93;;;;;;;;;;5111711;28;20043;-73
2022/06/26 02:05:33;;;;;;;12.70;10.85;;;;;;;;;;5111778;28;20035;-73
2022/06/26 02:07:59;;;;;;;12.75;11.38;;;;;;;;;;5110303;28;20044;-72
2022/06/26 02:15:56;;;;;;;13.63;11.38;;;;;;;;;;5109239;28;20481;-72
2022/06/26 02:18:22;;;;;;;13.15;11.70;;;;;;;;;;5110910;28;20089;-72
2022/06/26 02:20:48;;;;;;;12.90;11.38;;;;;;;;;;5093652;28;20122;-72
2022/06/26 02:23:14;;;;;;;15.20;10.95;;;;;;;;;;5110860;28;20039;-73
2022/06/26 02:25:41;;;;;;;14.38;12.45;;;;;;;;;;5111323;28;20043;-73
2022/06/26 02:28:07;;;;;;;13.18;11.70;;;;;;;;;;5093164;28;20044;-74
2022/06/26 02:30:33;;;;;;;13.43;12.07;;;;;;;;;;5107307;28;20047;-73
2022/06/26 02:32:59;;;;;;;14.63;13.02;;;;;;;;;;5109666;28;20039;-73
2022/06/26 02:35:26;;;;;;;14.48;12.63;;;;;;;;;;5110436;28;20891;-74
2022/06/26 02:37:54;;;;;;;17.77;14.40;;;;;;;;;;5110905;28;20032;-73
2022/06/26 02:40:20;;;;;;;16.05;13.52;;;;;;;;;;5111605;28;20092;-73
2022/06/26 02:42:47;;;;;;;15.68;14.07;;;;;;;;;;5112545;28;20047;-74
2022/06/26 02:45:13;;;;;;;17.65;15.15;;;;;;;;;;5092794;28;20046;-74
2022/06/26 02:47:39;;;;;;;16.77;14.68;;;;;;;;;;5110182;28;20108;-73
2022/06/26 02:50:06;;;;;;;17.55;14.85;;;;;;;;;;5107405;28;20039;-74
2022/06/26 02:52:32;;;;;;;17.13;15.40;;;;;;;;;;5110508;28;20039;-73
2022/06/26 02:54:58;;;;;;;18.27;15.02;;;;;;;;;;5075673;28;20051;-74
2022/06/26 02:57:24;;;;;;;16.33;14.40;;;;;;;;;;5112032;28;20052;-73
2022/06/26 02:59:50;;;;;;;17.40;15.57;;;;;;;;;;5109070;28;20063;-73
2022/06/26 03:02:16;;;;;;;16.92;14.93;;;;;;;;;;5093286;28;20058;-73
2022/06/26 03:04:42;;;;;;;17.98;16.17;;;;;;;;;;5097102;28;20048;-72
2022/06/26 03:07:08;;;;;;;16.98;15.32;;;;;;;;;;5116047;28;20047;-73
2022/06/26 03:09:34;;;;;;;18.05;15.93;;;;;;;;;;5112690;28;20280;-72
2022/06/26 03:12:00;;;;;;;19.38;16.70;;;;;;;;;;5114844;28;20390;-72
2022/06/26 03:14:26;;;;;;;19.02;16.92;;;;;;;;;;5110856;28;20032;-72
2022/06/26 03:16:53;;;;;;;19.83;17.02;;;;;;;;;;5113962;28;20388;-74
2022/06/26 03:19:19;;;;;;;18.73;15.85;;;;;;;;;;5096378;28;20172;-72
2022/06/26 03:21:45;;;;;;;16.85;15.15;;;;;;;;;;5114850;28;20082;-73
2022/06/26 03:24:11;;;;;;;18.33;15.27;;;;;;;;;;5112274;28;20072;-72
2022/06/26 03:26:38;;;;;;;15.82;14.20;;;;;;;;;;5114761;28;20101;-72
2022/06/26 03:29:08;;;;;;;13.25;11.95;;;;;;;;;;5115138;28;20382;-72
2022/06/26 03:31:34;;;;;;;14.13;11.77;;;;;;;;;;5114242;28;20058;-73
2022/06/26 03:34:00;;;;;;;12.50;10.20;;;;;;;;;;5115304;28;20039;-72
2022/06/26 03:36:27;;;;;;;12.52;10.35;;;;;;;;;;5115784;28;20040;-73
2022/06/26 03:38:54;;;;;;;15.55;10.43;;;;;;;;;;5106621;28;20040;-73
2022/06/26 03:41:20;;;;;;;14.25;10.20;;;;;;;;;;5112140;28;20072;-72
2022/06/26 03:43:46;;;;;;;13.48;9.90;;;;;;;;;;5111482;28;20123;-72
2022/06/26 03:46:12;;;;;;;10.77;8.60;;;;;;;;;;5114606;28;20070;-73
2022/06/26 03:48:38;;;;;;;11.85;8.98;;;;;;;;;;5114120;28;20059;-72
2022/06/26 03:51:05;;;;;;;12.05;8.60;;;;;;;;;;5111582;28;20071;-73
2022/06/26 03:53:31;;;;;;;11.20;8.38;;;;;;;;;;5114819;28;20125;-72
2022/06/26 03:55:57;;;;;;;11.52;7.97;;;;;;;;;;5101629;28;20085;-72
2022/06/26 03:58:24;;;;;;;10.93;7.97;;;;;;;;;;5110275;28;20570;-72
2022/06/26 04:00:50;;;;;;;12.63;7.20;;;;;;;;;;5112898;28;20051;-72
2022/06/26 04:03:16;;;;;;;8.60;6.85;;;;;;;;;;5114133;28;20096;-72
2022/06/26 04:05:42;;;;;;;10.68;7.32;;;;;;;;;;5114824;28;20044;-72
2022/06/26 04:08:09;;;;;;;8.68;6.60;;;;;;;;;;5112148;28;20036;-72
2022/06/26 04:10:35;;;;;;;10.32;6.70;;;;;;;;;;5113318;28;20052;-72
2022/06/26 04:13:02;;;;;;;9.80;6.50;;;;;;;;;;5112774;28;20402;-71
2022/06/26 04:15:28;;;;;;;8.35;6.53;;;;;;;;;;5112279;28;20068;-73
2022/06/26 04:17:55;;;;;;;10.27;5.72;;;;;;;;;;5114462;28;20047;-73
2022/06/26 04:20:21;;;;;;;9.63;5.65;;;;;;;;;;5095609;28;20082;-73
2022/06/26 04:22:57;;;;;;;10.18;5.35;;;;;;;;;;5114112;28;20165;-73
2022/06/26 04:25:24;;;;;;;9.15;5.85;;;;;;;;;;5114075;28;20039;-73
2022/06/26 04:27:50;;;;;;;10.32;5.30;;;;;;;;;;5111522;28;20145;-73
2022/06/26 04:30:16;;;;;;;7.20;5.13;;;;;;;;;;5109677;28;20047;-73
2022/06/26 04:32:42;;;;;;;8.45;5.43;;;;;;;;;;5094789;28;20401;-72
2022/06/26 04:35:09;;;;;;;7.25;4.80;;;;;;;;;;5111667;28;20070;-72
2022/06/26 04:37:36;;;;;;;8.45;4.63;;;;;;;;;;5112845;28;20047;-72
2022/06/26 04:40:02;;;;;;;8.45;5.03;;;;;;;;;;5112666;28;20051;-71
2022/06/26 04:42:28;;;;;;;7.40;4.38;;;;;;;;;;5110985;27;20509;-73
2022/06/26 04:44:54;;;;;;;9.23;5.30;;;;;;;;;;5095639;28;20043;-73
2022/06/26 04:47:20;;;;;;;7.45;5.07;;;;;;;;;;5113541;28;20059;-73
2022/06/26 04:49:47;;;;;;;7.10;5.03;;;;;;;;;;5107088;28;20043;-73
2022/06/26 04:52:13;;;;;;;7.80;4.50;;;;;;;;;;5112821;28;20061;-72
2022/06/26 04:54:40;;;;;;;7.40;4.43;;;;;;;;;;5093084;28;20044;-72
2022/06/26 04:57:06;;;;;;;8.02;4.47;;;;;;;;;;5113163;28;20047;-72
2022/06/26 04:59:32;;;;;;;7.32;5.07;;;;;;;;;;5093857;28;20070;-72
2022/06/26 05:01:58;;;;;;;8.57;5.10;;;;;;;;;;5112922;28;20036;-72
2022/06/26 05:04:24;;;;;;;8.40;4.40;;;;;;;;;;5112757;28;20043;-72
2022/06/26 05:06:50;;;;;;;8.20;4.70;;;;;;;;;;5113878;28;20044;-72
2022/06/26 05:09:16;;;;;;;7.10;4.43;;;;;;;;;;5112507;27;20092;-72
2022/06/26 05:11:43;;;;;;;7.55;4.65;;;;;;;;;;5110072;28;20047;-73
2022/06/26 05:14:09;;;;;;;5.50;4.13;;;;;;;;;;5110828;28;20084;-73
2022/06/26 05:16:35;;;;;;;6.55;4.47;;;;;;;;;;5109383;28;20039;-72
2022/06/26 05:19:02;;;;;;;6.45;4.15;;;;;;;;;;5098127;28;20042;-72
2022/06/26 05:21:28;;;;;;;10.70;4.40;;;;;;;;;;5112920;28;20040;-73
2022/06/26 05:23:54;;;;;;;6.68;4.18;;;;;;;;;;5091041;28;20478;-72
2022/06/26 05:26:20;;;;;;;6.40;4.20;;;;;;;;;;5103761;28;20051;-71
2022/06/26 05:28:46;;;;;;;5.95;4.30;;;;;;;;;;5108809;28;20048;-72
2022/06/26 05:31:12;;;;;;;5.53;3.70;;;;;;;;;;5110711;28;20039;-72
2022/06/26 05:33:38;;;;;;;8.18;4.03;;;;;;;;;;5106550;28;20088;-72
2022/06/26 05:36:06;;;;;;;6.15;3.50;;;;;;;;;;5106557;28;20048;-72
2022/06/26 05:38:32;;;;;;;6.05;3.42;;;;;;;;;;5100411;28;20073;-72
2022/06/26 05:40:59;;;;;;;6.72;3.60;;;;;;;;;;5110892;28;20044;-72
2022/06/26 05:43:24;;;;;;;6.30;3.10;;;;;;;;;;5112959;28;20080;-72
2022/06/26 05:45:51;;;;;;;6.72;3.17;;;;;;;;;;5112098;28;20044;-71
2022/06/26 05:48:17;;;;;;;6.25;3.30;;;;;;;;;;5077333;28;20109;-72
2022/06/26 05:50:43;;;;;;;6.07;3.50;;;;;;;;;;5111987;28;20040;-73
2022/06/26 05:53:09;;;;;;;7.60;3.30;;;;;;;;;;5112268;28;20512;-72
2022/06/26 05:55:36;;;;;;;6.65;3.92;;;;;;;;;;5112369;28;20044;-73
2022/06/26 05:58:02;;;;;;;6.75;3.70;;;;;;;;;;5111977;28;20043;-72
2022/06/26 06:00:28;;;;;;;7.38;3.83;;;;;;;;;;5111310;28;20722;-71
2022/06/26 06:02:55;;;;;;;7.57;4.40;;;;;;;;;;5090509;28;20039;-72
2022/06/26 06:05:21;;;;;;;6.82;4.43;;;;;;;;;;5105233;28;20439;-73
2022/06/26 06:07:47;;;;;;;7.00;4.30;;;;;;;;;;5104950;28;20036;-73
2022/06/26 06:10:13;;;;;;;8.00;4.40;;;;;;;;;;5108811;28;20482;-73
2022/06/26 06:12:39;;;;;;;7.38;4.05;;;;;;;;;;5110045;28;20494;-73
2022/06/26 06:15:06;;;;;;;6.90;4.57;;;;;;;;;;5108046;28;20485;-73
2022/06/26 06:17:41;;;;;;;7.35;4.45;;;;;;;;;;5113268;28;20047;-73
2022/06/26 06:20:20;;;;;;;6.82;4.38;;;;;;;;;;5112099;28;20050;-73
2022/06/26 06:22:53;;;;;;;7.00;4.50;;;;;;;;;;5112502;28;20073;-74
2022/06/26 06:25:19;;;;;;;8.18;4.90;;;;;;;;;;5109865;28;20519;-72
2022/06/26 06:27:46;;;;;;;7.95;4.45;;;;;;;;;;5108615;28;20486;-72
2022/06/26 06:30:13;;;;;;;7.88;4.65;;;;;;;;;;5110986;28;20543;-73
2022/06/26 06:32:40;;;;;;;6.28;4.68;;;;;;;;;;5092691;28;20126;-72
2022/06/26 06:35:06;;;;;;;7.03;5.07;;;;;;;;;;5110776;28;20409;-72
2022/06/26 06:37:33;;;;;;;6.97;5.53;;;;;;;;;;5092674;28;20043;-72
2022/06/26 06:39:59;;;;;;;7.60;5.55;;;;;;;;;;5113966;28;20051;-72
2022/06/26 06:42:25;;;;;;;9.55;5.90;;;;;;;;;;5093732;28;20039;-72
2022/06/26 06:44:51;;;;;;;7.30;5.82;;;;;;;;;;5113924;28;20048;-73
2022/06/26 06:47:17;;;;;;;8.73;5.60;;;;;;;;;;5116695;28;20184;-73
2022/06/26 06:49:43;;;;;;;6.90;5.80;;;;;;;;;;5116281;28;20047;-72
2022/06/26 06:52:10;;;;;;;7.70;5.13;;;;;;;;;;5112843;27;20050;-72
2022/06/26 06:54:36;;;;;;;9.43;5.80;;;;;;;;;;5113263;27;20048;-72
2022/06/26 06:57:02;;;;;;;7.25;5.72;;;;;;;;;;5113792;27;20485;-72
2022/06/26 06:59:28;;;;;;;8.75;5.85;;;;;;;;;;5116139;28;20046;-72
2022/06/26 07:01:54;;;;;;;9.02;6.22;;;;;;;;;;5115504;28;20127;-73
2022/06/26 07:04:20;;;;;;;7.32;5.55;;;;;;;;;;5115735;28;20409;-72
2022/06/26 07:06:47;;;;;;;7.43;5.53;;;;;;;;;;5107828;28;20461;-72
2022/06/26 07:09:13;;;;;;;7.80;5.75;;;;;;;;;;5106215;27;20123;-72
2022/06/26 07:11:39;;;;;;;9.13;6.05;;;;;;;;;;5124946;27;20035;-72
2022/06/26 07:14:06;;;;;;;8.43;6.22;;;;;;;;;;5118806;27;20035;-72
2022/06/26 07:16:32;;;;;;;9.10;5.93;;;;;;;;;;5116292;28;20443;-73
2022/06/26 07:18:58;;;;;;;8.50;6.50;;;;;;;;;;5098009;28;20055;-73
2022/06/26 07:21:24;;;;;;;8.30;7.07;;;;;;;;;;5116065;28;20052;-72
2022/06/26 07:23:50;;;;;;;9.25;7.78;;;;;;;;;;5115120;28;20133;-72
2022/06/26 07:26:16;;;;;;;10.50;7.85;;;;;;;;;;5126438;27;20400;-72
2022/06/26 07:28:42;;;;;;;8.63;6.97;;;;;;;;;;5117780;27;20369;-72
2022/06/26 07:31:08;;;;;;;8.27;6.68;;;;;;;;;;5115036;28;20035;-73
2022/06/26 07:36:19;;;;;;;9.48;7.07;;;;;;;;;;5111438;28;20043;-73
2022/06/26 07:38:45;;;;;;;7.90;6.53;;;;;;;;;;5112267;28;20039;-73
2022/06/26 07:41:11;;;;;;;7.43;5.90;;;;;;;;;;5097698;28;20046;-74
2022/06/26 07:43:37;;;;;;;7.97;6.30;;;;;;;;;;5115617;28;20042;-73
2022/06/26 07:46:03;;;;;;;9.52;6.55;;;;;;;;;;5115075;28;20040;-73
2022/06/26 07:48:29;;;;;;;8.68;6.57;;;;;;;;;;5113955;28;20052;-73
2022/06/26 07:50:55;;;;;;;10.35;6.20;;;;;;;;;;5078857;28;20093;-74
2022/06/26 07:53:22;;;;;;;8.27;6.13;;;;;;;;;;5117960;27;20051;-75
2022/06/26 07:55:48;;;;;;;8.30;6.35;;;;;;;;;;5114930;27;20050;-77
2022/06/26 07:58:14;;;;;;;8.30;5.97;;;;;;;;;;5114569;28;20118;-72
2022/06/26 08:00:40;;;;;;;7.50;6.03;;;;;;;;;;5112153;28;20101;-73
2022/06/26 08:03:10;;;;;;;7.40;5.10;;;;;;;;;;5115315;28;20036;-72
2022/06/26 08:05:36;;;;;;;7.83;5.50;;;;;;;;;;5115508;28;20047;-73
2022/06/26 08:08:03;;;;;;;7.93;5.00;;;;;;;;;;5114520;28;20486;-72
2022/06/26 08:10:29;;;;;;;7.40;6.10;;;;;;;;;;5113983;28;20039;-72
2022/06/26 08:12:55;;;;;;;7.03;5.88;;;;;;;;;;5106840;28;20509;-73
2022/06/26 08:15:21;;;;;;;9.65;7.20;;;;;;;;;;5115237;28;20122;-73
2022/06/26 08:17:47;;;;;;;9.30;6.60;;;;;;;;;;5115168;28;20044;-72
2022/06/26 08:20:13;;;;;;;7.63;5.57;;;;;;;;;;5114132;28;20047;-72
2022/06/26 08:22:39;;;;;;;9.65;6.70;;;;;;;;;;5118849;27;20046;-73
2022/06/26 08:25:06;;;;;;;9.38;8.30;;;;;;;;;;5105653;28;20415;-73
2022/06/26 08:27:32;;;;;;;9.32;8.00;;;;;;;;;;5114807;28;20047;-73
2022/06/26 08:29:58;;;;;;;10.27;7.78;;;;;;;;;;5114768;28;20148;-72
2022/06/26 08:32:24;;;;;;;8.35;5.60;;;;;;;;;;5114716;28;20063;-72
2022/06/26 08:34:50;;;;;;;7.93;5.60;;;;;;;;;;5113909;28;20052;-73
2022/06/26 08:37:19;;;;;;;8.45;6.20;;;;;;;;;;5113225;28;20039;-73
2022/06/26 08:39:45;;;;;;;6.60;4.68;;;;;;;;;;5113003;28;20050;-72
2022/06/26 08:42:11;;;;;;;8.48;4.60;;;;;;;;;;5113971;28;20048;-73
2022/06/26 08:44:41;;;;;;;8.18;5.28;;;;;;;;;;5114554;28;20382;-73
2022/06/26 08:47:08;;;;;;;7.93;5.35;;;;;;;;;;5114224;28;20054;-73
2022/06/26 08:49:34;;;;;;;6.68;4.90;;;;;;;;;;5093208;28;20082;-73
2022/06/26 08:52:00;;;;;;;6.60;4.47;;;;;;;;;;5127757;27;20047;-73
2022/06/26 08:54:28;;;;;;;6.80;5.03;;;;;;;;;;5130076;27;20088;-73
2022/06/26 08:56:55;;;;;;;7.70;4.97;;;;;;;;;;5114413;28;20048;-72
2022/06/26 08:59:21;;;;;;;6.88;4.85;;;;;;;;;;5114365;28;20043;-73
2022/06/26 09:01:47;;;;;;;6.22;4.10;;;;;;;;;;5112747;28;20071;-73
2022/06/26 09:04:14;;;;;;;6.10;4.35;;;;;;;;;;5121346;27;20043;-72
2022/06/26 09:06:41;;;;;;;7.35;4.35;;;;;;;;;;5119705;27;20047;-72
2022/06/26 09:09:13;;;;;;;6.60;3.75;;;;;;;;;;5110981;27;20040;-73
2022/06/26 09:11:39;;;;;;;6.28;3.20;;;;;;;;;;5109451;28;20563;-72
2022/06/26 09:14:05;;;;;;;6.40;3.58;;;;;;;;;;5105416;27;20031;-72
2022/06/26 09:16:32;;;;;;;6.30;3.53;;;;;;;;;;5119975;27;20114;-72
2022/06/26 09:19:12;;;;;;;7.70;4.72;;;;;;;;;;5105488;28;20522;-72
2022/06/26 09:21:38;;;;;;;7.07;4.22;;;;;;;;;;5111306;28;20047;-72
2022/06/26 09:24:04;;;;;;;6.20;3.40;;;;;;;;;;5114396;27;20075;-72
2022/06/26 09:26:30;;;;;;;4.50;2.22;;;;;;;;;;5113485;28;20040;-72
2022/06/26 09:28:56;;;;;;;5.07;2.40;;;;;;;;;;5110604;28;20043;-71
2022/06/26 09:31:23;;;;;;;6.63;2.65;;;;;;;;;;5134377;27;20039;-72
2022/06/26 09:33:49;;;;;;;6.30;2.88;;;;;;;;;;5122713;27;20057;-72
2022/06/26 09:36:16;;;;;;;4.82;2.50;;;;;;;;;;5132620;27;20043;-71
2022/06/26 09:38:47;;;;;;;6.05;2.40;;;;;;;;;;5116073;27;20123;-72
2022/06/26 09:41:14;;;;;;;8.45;3.95;;;;;;;;;;5095091;28;20036;-72
2022/06/26 09:43:43;;;;;;;6.15;3.50;;;;;;;;;;5112280;28;20047;-72
2022/06/26 09:46:11;;;;;;;7.15;3.60;;;;;;;;;;5113695;28;20404;-71
2022/06/26 09:48:37;;;;;;;6.10;3.28;;;;;;;;;;5113393;28;20493;-72
2022/06/26 09:51:04;;;;;;;6.18;2.95;;;;;;;;;;5112782;28;20498;-72
2022/06/26 09:53:30;;;;;;;6.35;3.03;;;;;;;;;;5113553;28;20463;-72
2022/06/26 09:55:57;;;;;;;6.22;2.90;;;;;;;;;;5130397;27;20442;-71
2022/06/26 09:58:24;;;;;;;5.97;2.58;;;;;;;;;;5094514;28;20069;-71
2022/06/26 10:06:28;;;;;;;5.78;2.30;;;;;;;;;;5112039;27;20055;-71
2022/06/26 10:08:55;;;;;;;4.32;2.40;;;;;;;;;;5100090;28;20044;-72
2022/06/26 10:11:23;;;;;;;6.35;2.58;;;;;;;;;;5114194;28;20116;-71
2022/06/26 10:13:50;;;;;;;5.95;2.20;;;;;;;;;;5112788;28;20081;-72
2022/06/26 10:16:19;;;;;;;5.93;2.17;;;;;;;;;;5112786;28;20112;-72
2022/06/26 10:19:05;;;;;;;4.93;2.00;;;;;;;;;;5102950;28;20110;-71
2022/06/26 10:21:35;;;;;;;4.75;2.05;;;;;;;;;;5091172;28;20046;-71
2022/06/26 10:24:03;;;;;;;4.60;1.80;;;;;;;;;;5111933;28;20047;-71
2022/06/26 10:26:29;;;;;;;4.60;1.80;;;;;;;;;;5112029;28;20044;-71
2022/06/26 10:29:13;;;;;;;4.70;2.20;;;;;;;;;;5112569;28;20167;-71
2022/06/26 10:31:43;;;;;;;5.57;2.25;;;;;;;;;;5111830;28;20070;-71
2022/06/26 10:34:11;;;;;;;6.18;2.13;;;;;;;;;;5093849;28;20077;-71
2022/06/26 10:36:37;;;;;;;5.85;2.40;;;;;;;;;;5078197;28;20043;-71
2022/06/26 10:39:07;;;;;;;5.93;2.10;;;;;;;;;;5110436;28;20065;-72
2022/06/26 10:44:46;;;;;;;6.25;2.70;;;;;;;;;;5009546;28;20042;-71
2022/06/26 10:47:15;;;;;;;5.88;2.30;;;;;;;;;;5009772;28;20431;-71
2022/06/26 10:49:48;;;;;;;4.55;2.15;;;;;;;;;;5010393;28;20050;-72
2022/06/26 10:52:27;;;;;;;5.85;2.30;;;;;;;;;;5010061;28;20057;-71
2022/06/26 10:54:54;;;;;;;5.50;2.53;;;;;;;;;;5009393;28;20065;-72
2022/06/26 10:57:30;;;;;;;6.05;2.47;;;;;;;;;;4992102;28;20415;-72
2022/06/26 10:59:58;;;;;;;5.43;2.47;;;;;;;;;;5008547;28;20041;-70
2022/06/26 11:02:25;;;;;;;6.15;2.47;;;;;;;;;;5010170;28;20650;-71
2022/06/26 11:04:51;;;;;;;5.30;2.35;;;;;;;;;;5010280;28;20046;-72
2022/06/26 11:07:18;;;;;;;6.32;2.30;;;;;;;;;;5008985;28;20092;-71
2022/06/26 11:09:44;;;;;;;5.40;2.40;;;;;;;;;;5007652;28;20416;-71
2022/06/26 11:12:10;;;;;;;5.63;2.15;;;;;;;;;;5008802;28;20042;-72
2022/06/26 11:14:36;;;;;;;6.35;2.05;;;;;;;;;;5020036;28;20417;-72
2022/06/26 11:17:05;;;;;;;5.53;2.25;;;;;;;;;;5105699;28;20039;-72
2022/06/26 11:19:32;;;;;;;6.88;2.60;;;;;;;;;;5110750;28;20044;-71
2022/06/26 11:22:08;;;;;;;5.13;2.30;;;;;;;;;;5112523;28;20553;-72
2022/06/26 11:24:34;;;;;;;5.53;2.15;;;;;;;;;;5112920;28;20044;-71
2022/06/26 11:27:00;;;;;;;6.90;2.10;;;;;;;;;;5114763;28;20043;-71
2022/06/26 11:29:27;;;;;;;7.35;2.33;;;;;;;;;;5131166;27;20051;-72
2022/06/26 11:31:54;;;;;;;5.47;2.38;;;;;;;;;;5118187;27;20051;-71
2022/06/26 11:34:20;;;;;;;7.65;2.65;;;;;;;;;;5097959;28;20105;-72
2022/06/26 11:36:53;;;;;;;7.78;2.60;;;;;;;;;;5114926;28;20044;-72
2022/06/26 11:39:20;;;;;;;5.43;2.67;;;;;;;;;;5099545;28;20031;-72
2022/06/26 11:41:46;;;;;;;6.13;2.03;;;;;;;;;;5115274;27;20075;-71
2022/06/26 11:44:13;;;;;;;4.78;2.13;;;;;;;;;;5133740;27;20050;-72
2022/06/26 11:46:40;;;;;;;5.47;2.65;;;;;;;;;;5115245;28;20082;-71
2022/06/26 11:49:09;;;;;;;5.18;2.33;;;;;;;;;;5115413;28;20063;-72
2022/06/26 11:51:35;;;;;;;5.45;2.33;;;;;;;;;;5095785;28;20039;-71
2022/06/26 11:54:01;;;;;;;5.88;2.20;;;;;;;;;;5115499;28;20046;-71
2022/06/26 11:56:29;;;;;;;5.20;2.20;;;;;;;;;;5115410;28;20393;-71
2022/06/26 11:58:57;;;;;;;5.25;2.10;;;;;;;;;;5114844;28;20539;-71
2022/06/26 12:01:30;;;;;;;6.82;2.38;;;;;;;;;;5116891;27;20062;-72
2022/06/26 12:03:56;;;;;;;6.50;2.40;;;;;;;;;;5117214;27;20512;-71
2022/06/26 12:06:28;;;;;;;5.82;2.30;;;;;;;;;;5114899;28;20044;-71
2022/06/26 12:08:56;;;;;;;5.72;2.33;;;;;;;;;;5113292;28;20036;-72
2022/06/26 12:11:22;;;;;;;5.60;2.55;;;;;;;;;;5114684;28;20059;-71
2022/06/26 12:13:48;;;;;;;4.57;2.25;;;;;;;;;;5115413;28;20050;-72
2022/06/26 12:16:14;;;;;;;5.95;2.58;;;;;;;;;;5117603;27;20039;-71
2022/06/26 12:18:42;;;;;;;5.05;1.92;;;;;;;;;;5114687;28;20052;-72
2022/06/26 12:21:18;;;;;;;6.32;2.40;;;;;;;;;;5113262;28;20043;-70
2022/06/26 12:23:45;;;;;;;5.63;2.40;;;;;;;;;;5115103;28;20039;-70
2022/06/26 12:26:12;;;;;;;4.63;2.15;;;;;;;;;;5114221;28;20515;-71
2022/06/26 12:28:46;;;;;;;5.75;2.30;;;;;;;;;;5115066;28;20048;-71
2022/06/26 12:31:12;;;;;;;6.28;2.40;;;;;;;;;;5108885;28;20119;-70
2022/06/26 12:33:38;;;;;;;5.80;2.08;;;;;;;;;;5114204;28;20044;-71
2022/06/26 12:36:05;;;;;;;4.88;1.85;;;;;;;;;;5113561;28;20036;-71
2022/06/26 12:38:33;;;;;;;5.53;1.98;;;;;;;;;;5113531;28;20062;-71
2022/06/26 12:40:59;;;;;;;6.35;1.90;;;;;;;;;;5114704;28;20043;-71
2022/06/26 12:43:25;;;;;;;5.95;2.20;;;;;;;;;;5111799;28;20122;-71
2022/06/26 12:45:51;;;;;;;5.47;1.92;;;;;;;;;;5089611;28;20176;-71
2022/06/26 12:48:17;;;;;;;4.78;1.70;;;;;;;;;;5091258;28;20070;-71
2022/06/26 12:50:43;;;;;;;5.78;1.80;;;;;;;;;;5110553;28;20039;-71
2022/06/26 12:53:10;;;;;;;5.15;1.83;;;;;;;;;;5096375;28;20050;-71
2022/06/26 12:55:36;;;;;;;5.75;1.80;;;;;;;;;;5112306;28;20485;-71
2022/06/26 12:58:03;;;;;;;5.85;2.08;;;;;;;;;;5114283;28;20474;-71
2022/06/26 13:00:29;;;;;;;5.70;2.25;;;;;;;;;;5111105;28;20142;-71
2022/06/26 13:02:55;;;;;;;6.72;2.00;;;;;;;;;;5095983;28;20516;-72
2022/06/26 13:05:21;;;;;;;7.30;2.25;;;;;;;;;;5112600;27;20073;-71
2022/06/26 13:07:48;;;;;;;7.00;2.20;;;;;;;;;;5096224;28;20052;-71
2022/06/26 13:10:14;;;;;;;6.55;2.13;;;;;;;;;;5110204;28;20089;-71
2022/06/26 13:12:40;;;;;;;4.40;1.85;;;;;;;;;;5112533;28;20515;-71
2022/06/26 13:15:06;;;;;;;7.53;2.58;;;;;;;;;;5113065;28;20486;-71
2022/06/26 13:17:32;;;;;;;5.43;1.80;;;;;;;;;;5111783;28;20035;-71
2022/06/26 13:19:58;;;;;;;5.90;2.00;;;;;;;;;;5113227;28;20055;-71
2022/06/26 13:22:24;;;;;;;5.68;1.90;;;;;;;;;;5112547;27;20101;-71
2022/06/26 13:24:50;;;;;;;5.07;1.90;;;;;;;;;;5105227;28;20058;-71
2022/06/26 13:27:16;;;;;;;6.07;1.90;;;;;;;;;;5113041;28;20686;-70
2022/06/26 13:29:42;;;;;;;5.85;2.00;;;;;;;;;;5113637;28;20043;-71
2022/06/26 13:32:09;;;;;;;6.72;2.17;;;;;;;;;;5113648;28;20386;-71
2022/06/26 13:34:35;;;;;;;6.55;2.13;;;;;;;;;;5112852;28;20044;-71
2022/06/26 13:37:02;;;;;;;7.18;2.38;;;;;;;;;;5112817;27;20493;-71
2022/06/26 13:39:28;;;;;;;6.22;2.20;;;;;;;;;;5116868;27;20044;-71
2022/06/26 13:41:54;;;;;;;5.07;1.98;;;;;;;;;;5112482;28;20086;-70
2022/06/26 13:44:20;;;;;;;5.63;2.38;;;;;;;;;;5092704;28;20065;-71
2022/06/26 13:46:46;;;;;;;7.28;2.83;;;;;;;;;;5113488;28;20108;-71
2022/06/26 13:49:12;;;;;;;6.68;2.42;;;;;;;;;;5109218;28;20428;-71
2022/06/26 13:51:39;;;;;;;5.15;2.03;;;;;;;;;;5126448;27;20119;-72
2022/06/26 13:54:05;;;;;;;5.40;2.15;;;;;;;;;;5133857;27;20481;-71
2022/06/26 13:56:31;;;;;;;7.18;2.30;;;;;;;;;;5122380;27;20050;-71
2022/06/26 13:58:57;;;;;;;6.97;2.30;;;;;;;;;;5112686;28;20100;-72
2022/06/26 14:01:24;;;;;;;6.93;2.50;;;;;;;;;;5074441;28;20052;-71
2022/06/26 14:03:50;;;;;;;6.30;2.35;;;;;;;;;;5102809;28;20092;-71
2022/06/26 14:06:16;;;;;;;6.10;2.20;;;;;;;;;;5112436;28;20051;-71
2022/06/26 14:08:42;;;;;;;7.25;2.30;;;;;;;;;;5108935;28;20059;-71
2022/06/26 14:11:08;;;;;;;5.10;2.05;;;;;;;;;;5112339;28;20051;-71
2022/06/26 14:13:34;;;;;;;5.47;2.20;;;;;;;;;;5110079;28;20046;-71
2022/06/26 14:16:00;;;;;;;6.60;2.35;;;;;;;;;;5111956;28;20541;-71
2022/06/26 14:18:26;;;;;;;6.78;2.40;;;;;;;;;;5123873;28;20419;-71
2022/06/26 14:20:52;;;;;;;5.68;2.58;;;;;;;;;;5118058;28;20052;-71
2022/06/26 14:26:04;;;;;;;5.97;2.72;;;;;;;;;;5092512;28;20083;-71
2022/06/26 14:28:34;;;;;;;7.90;2.60;;;;;;;;;;5113074;28;20040;-71
2022/06/26 14:31:01;;;;;;;6.32;2.47;;;;;;;;;;5112870;28;20043;-71
2022/06/26 14:33:27;;;;;;;7.38;3.10;;;;;;;;;;5129043;28;20092;-71
2022/06/26 14:35:53;;;;;;;6.43;2.50;;;;;;;;;;5114904;28;20079;-70
2022/06/26 14:38:20;;;;;;;7.30;2.70;;;;;;;;;;5112988;28;20044;-71
2022/06/26 14:40:46;;;;;;;6.57;2.33;;;;;;;;;;5110300;28;20051;-71
2022/06/26 14:43:13;;;;;;;6.03;2.88;;;;;;;;;;5112975;28;20109;-71
2022/06/26 14:45:39;;;;;;;7.43;2.65;;;;;;;;;;5116161;28;20047;-70
2022/06/26 14:48:06;;;;;;;6.28;2.67;;;;;;;;;;5114196;28;20055;-72
2022/06/26 14:50:32;;;;;;;7.38;2.70;;;;;;;;;;5101912;28;20393;-72
2022/06/26 14:52:58;;;;;;;6.95;2.72;;;;;;;;;;5093826;28;20047;-71